createdAt,value
2017-07-10T00:00:05.843Z,0
2017-07-10T00:00:46.299Z,0
2017-07-10T00:01:26.756Z,0
2017-07-10T00:02:07.223Z,0
2017-07-10T00:02:47.693Z,0
2017-07-10T00:03:28.149Z,0
2017-07-10T00:04:08.605Z,0
2017-07-10T00:04:49.069Z,0
2017-07-10T00:05:29.528Z,0
2017-07-10T00:06:10.036Z,0
2017-07-10T00:06:50.442Z,0
2017-07-10T00:07:30.906Z,0
2017-07-10T00:08:11.349Z,0
2017-07-10T00:08:51.802Z,0
2017-07-10T00:09:32.269Z,0
2017-07-10T00:10:12.717Z,0
2017-07-10T00:10:53.183Z,0
2017-07-10T00:11:33.638Z,0
2017-07-10T00:12:14.089Z,0
2017-07-10T00:12:54.567Z,0
2017-07-10T00:13:35.020Z,0
2017-07-10T00:14:15.552Z,0
2017-07-10T00:14:56.013Z,0
2017-07-10T00:15:36.464Z,0
2017-07-10T00:16:16.924Z,0
2017-07-10T00:16:57.380Z,0
2017-07-10T00:17:37.837Z,0
2017-07-10T00:18:18.292Z,0
2017-07-10T00:18:58.745Z,0
2017-07-10T00:19:40.545Z,0
2017-07-10T00:20:20.898Z,0
2017-07-10T00:21:01.358Z,0
2017-07-10T00:21:41.822Z,0
2017-07-10T00:22:22.276Z,0
2017-07-10T00:23:02.784Z,0
2017-07-10T00:23:43.244Z,0
2017-07-10T00:24:23.702Z,0
2017-07-10T00:25:04.163Z,0
2017-07-10T00:25:44.616Z,0
2017-07-10T00:26:25.084Z,0
2017-07-10T00:27:05.533Z,0
2017-07-10T00:27:46.083Z,0
2017-07-10T00:28:26.544Z,0
2017-07-10T00:29:06.999Z,0
2017-07-10T00:29:47.453Z,0
2017-07-10T00:30:27.917Z,0
2017-07-10T00:31:08.375Z,0
2017-07-10T00:31:48.838Z,0
2017-07-10T00:32:29.296Z,0
2017-07-10T00:33:09.749Z,0
2017-07-10T00:33:50.203Z,0
2017-07-10T00:34:30.665Z,0
2017-07-10T00:35:11.122Z,0
2017-07-10T00:35:51.674Z,0
2017-07-10T00:36:32.115Z,0
2017-07-10T00:37:12.572Z,0
2017-07-10T00:37:53.028Z,0
2017-07-10T00:38:33.488Z,0
2017-07-10T00:39:13.949Z,0
2017-07-10T00:39:54.406Z,0
2017-07-10T00:40:34.865Z,0
2017-07-10T00:41:15.327Z,0
2017-07-10T00:41:55.774Z,0
2017-07-10T00:42:36.229Z,0
2017-07-10T00:43:16.676Z,0
2017-07-10T00:43:57.128Z,0
2017-07-10T00:44:37.590Z,0
2017-07-10T00:45:18.050Z,0
2017-07-10T00:45:58.506Z,0
2017-07-10T00:46:38.964Z,0
2017-07-10T00:47:19.427Z,0
2017-07-10T00:47:59.885Z,0
2017-07-10T00:48:40.323Z,0
2017-07-10T00:49:20.780Z,0
2017-07-10T00:50:01.240Z,0
2017-07-10T00:50:41.702Z,0
2017-07-10T00:51:22.153Z,0
2017-07-10T00:52:02.618Z,0
2017-07-10T00:52:43.070Z,0
2017-07-10T00:53:23.529Z,0
2017-07-10T00:54:03.988Z,0
2017-07-10T00:54:44.447Z,0
2017-07-10T00:55:24.901Z,0
2017-07-10T00:56:05.361Z,0
2017-07-10T00:56:45.808Z,0
2017-07-10T00:57:26.257Z,0
2017-07-10T00:58:06.716Z,0
2017-07-10T00:58:47.171Z,0
2017-07-10T00:59:27.630Z,0
2017-07-10T01:00:08.080Z,0
2017-07-10T01:00:48.540Z,0
2017-07-10T01:01:28.993Z,0
2017-07-10T01:02:09.451Z,0
2017-07-10T01:02:49.908Z,0
2017-07-10T01:03:30.365Z,0
2017-07-10T01:04:10.818Z,0
2017-07-10T01:04:51.278Z,0
2017-07-10T01:05:31.726Z,0
2017-07-10T01:06:12.182Z,0
2017-07-10T01:06:52.638Z,0
2017-07-10T01:07:33.096Z,0
2017-07-10T01:08:13.554Z,0
2017-07-10T01:08:54.011Z,0
2017-07-10T01:09:34.515Z,0
2017-07-10T01:10:14.943Z,0
2017-07-10T01:10:55.403Z,0
2017-07-10T01:11:35.862Z,0
2017-07-10T01:12:16.324Z,0
2017-07-10T01:12:56.782Z,0
2017-07-10T01:13:37.242Z,0
2017-07-10T01:14:17.694Z,0
2017-07-10T01:14:58.142Z,0
2017-07-10T01:15:38.593Z,0
2017-07-10T01:16:19.049Z,0
2017-07-10T01:16:59.515Z,0
2017-07-10T01:17:39.975Z,0
2017-07-10T01:18:20.435Z,0
2017-07-10T01:19:00.890Z,0
2017-07-10T01:19:41.350Z,0
2017-07-10T01:20:21.804Z,0
2017-07-10T01:21:02.260Z,0
2017-07-10T01:21:42.718Z,0
2017-07-10T01:22:23.175Z,0
2017-07-10T01:23:03.633Z,0
2017-07-10T01:23:44.098Z,0
2017-07-10T01:24:24.550Z,0
2017-07-10T01:25:05.017Z,0
2017-07-10T01:25:45.455Z,0
2017-07-10T01:26:25.920Z,0
2017-07-10T01:27:06.379Z,0
2017-07-10T01:27:46.835Z,0
2017-07-10T01:28:27.295Z,0
2017-07-10T01:29:07.756Z,0
2017-07-10T01:29:48.207Z,0
2017-07-10T01:30:28.652Z,0
2017-07-10T01:31:09.107Z,0
2017-07-10T01:31:49.562Z,0
2017-07-10T01:32:30.021Z,0
2017-07-10T01:33:10.473Z,0
2017-07-10T01:33:50.926Z,0
2017-07-10T01:34:31.384Z,0
2017-07-10T01:35:11.842Z,0
2017-07-10T01:35:52.305Z,0
2017-07-10T01:36:32.766Z,0
2017-07-10T01:37:13.229Z,0
2017-07-10T01:37:53.690Z,0
2017-07-10T01:38:34.153Z,0
2017-07-10T01:39:14.610Z,0
2017-07-10T01:39:55.067Z,0
2017-07-10T01:40:35.529Z,0
2017-07-10T01:41:15.985Z,0
2017-07-10T01:41:56.441Z,0
2017-07-10T01:42:36.899Z,0
2017-07-10T01:43:17.361Z,0
2017-07-10T01:43:57.817Z,0
2017-07-10T01:44:38.318Z,0
2017-07-10T01:45:18.727Z,0
2017-07-10T01:45:59.189Z,0
2017-07-10T01:46:39.646Z,0
2017-07-10T01:47:20.110Z,0
2017-07-10T01:48:00.573Z,0
2017-07-10T01:48:41.029Z,0
2017-07-10T01:49:21.489Z,0
2017-07-10T01:50:01.953Z,0
2017-07-10T01:50:42.403Z,0
2017-07-10T01:51:22.854Z,0
2017-07-10T01:52:03.307Z,0
2017-07-10T01:52:43.766Z,0
2017-07-10T01:53:24.230Z,0
2017-07-10T01:54:04.711Z,0
2017-07-10T01:54:45.183Z,0
2017-07-10T01:55:25.635Z,0
2017-07-10T01:56:06.097Z,0
2017-07-10T01:56:46.562Z,0
2017-07-10T01:57:27.026Z,0
2017-07-10T01:58:07.491Z,0
2017-07-10T01:58:47.943Z,0
2017-07-10T01:59:28.398Z,0
2017-07-10T02:00:08.859Z,0
2017-07-10T02:00:49.319Z,0
2017-07-10T02:01:29.776Z,0
2017-07-10T02:02:10.228Z,0
2017-07-10T02:02:50.681Z,0
2017-07-10T02:03:31.154Z,0
2017-07-10T02:04:11.606Z,0
2017-07-10T02:04:52.058Z,0
2017-07-10T02:05:32.518Z,0
2017-07-10T02:06:13.027Z,0
2017-07-10T02:06:53.475Z,0
2017-07-10T02:07:33.922Z,0
2017-07-10T02:08:14.378Z,0
2017-07-10T02:08:55.119Z,0
2017-07-10T02:09:35.573Z,0
2017-07-10T02:10:16.025Z,0
2017-07-10T02:10:56.481Z,0
2017-07-10T02:11:36.948Z,0
2017-07-10T02:12:17.406Z,0
2017-07-10T02:12:57.867Z,0
2017-07-10T02:13:38.326Z,0
2017-07-10T02:14:18.794Z,0
2017-07-10T02:14:59.242Z,0
2017-07-10T02:15:39.699Z,0
2017-07-10T02:16:20.161Z,0
2017-07-10T02:17:00.608Z,0
2017-07-10T02:17:41.053Z,0
2017-07-10T02:18:21.511Z,0
2017-07-10T02:19:01.984Z,0
2017-07-10T02:19:42.432Z,0
2017-07-10T02:20:22.895Z,0
2017-07-10T02:21:03.352Z,0
2017-07-10T02:21:43.815Z,0
2017-07-10T02:22:24.271Z,0
2017-07-10T02:23:04.733Z,0
2017-07-10T02:23:45.194Z,0
2017-07-10T02:24:25.646Z,0
2017-07-10T02:25:06.102Z,0
2017-07-10T02:25:46.560Z,0
2017-07-10T02:26:27.028Z,0
2017-07-10T02:27:07.489Z,0
2017-07-10T02:27:47.946Z,0
2017-07-10T02:28:28.405Z,0
2017-07-10T02:29:08.864Z,0
2017-07-10T02:29:49.319Z,0
2017-07-10T02:30:29.777Z,0
2017-07-10T02:31:10.236Z,0
2017-07-10T02:31:50.687Z,0
2017-07-10T02:32:31.150Z,0
2017-07-10T02:33:11.611Z,0
2017-07-10T02:33:52.173Z,0
2017-07-10T02:34:32.631Z,0
2017-07-10T02:35:13.092Z,0
2017-07-10T02:35:53.540Z,0
2017-07-10T02:36:34.004Z,0
2017-07-10T02:37:14.463Z,0
2017-07-10T02:37:54.922Z,0
2017-07-10T02:38:35.380Z,0
2017-07-10T02:39:15.825Z,0
2017-07-10T02:39:56.287Z,0
2017-07-10T02:40:36.746Z,0
2017-07-10T02:41:17.209Z,0
2017-07-10T02:41:57.668Z,0
2017-07-10T02:42:38.124Z,0
2017-07-10T02:43:18.587Z,0
2017-07-10T02:43:59.037Z,0
2017-07-10T02:44:39.494Z,0
2017-07-10T02:45:19.957Z,0
2017-07-10T02:46:00.417Z,0
2017-07-10T02:46:40.873Z,0
2017-07-10T02:47:21.342Z,0
2017-07-10T02:48:01.805Z,0
2017-07-10T02:48:42.270Z,0
2017-07-10T02:49:22.722Z,0
2017-07-10T02:50:03.175Z,0
2017-07-10T02:50:43.636Z,0
2017-07-10T02:51:24.092Z,0
2017-07-10T02:52:04.550Z,0
2017-07-10T02:52:45.009Z,0
2017-07-10T02:53:25.471Z,0
2017-07-10T02:54:05.946Z,0
2017-07-10T02:54:46.402Z,0
2017-07-10T02:55:26.847Z,0
2017-07-10T02:56:07.440Z,0
2017-07-10T02:56:47.847Z,0
2017-07-10T02:57:28.321Z,0
2017-07-10T02:58:08.780Z,0
2017-07-10T02:58:49.255Z,0
2017-07-10T02:59:29.714Z,0
2017-07-10T03:00:10.172Z,0
2017-07-10T03:00:50.631Z,0
2017-07-10T03:01:31.090Z,0
2017-07-10T03:02:11.546Z,0
2017-07-10T03:02:52.003Z,0
2017-07-10T03:03:32.466Z,0
2017-07-10T03:04:12.944Z,0
2017-07-10T03:04:53.401Z,0
2017-07-10T03:05:33.863Z,0
2017-07-10T03:06:14.322Z,0
2017-07-10T03:06:54.778Z,0
2017-07-10T03:07:35.234Z,0
2017-07-10T03:08:15.692Z,0
2017-07-10T03:08:56.133Z,0
2017-07-10T03:09:36.593Z,0
2017-07-10T03:10:17.058Z,0
2017-07-10T03:10:57.518Z,0
2017-07-10T03:11:37.981Z,0
2017-07-10T03:12:18.435Z,0
2017-07-10T03:12:58.890Z,0
2017-07-10T03:13:39.353Z,0
2017-07-10T03:14:19.814Z,0
2017-07-10T03:15:00.267Z,0
2017-07-10T03:15:40.732Z,0
2017-07-10T03:16:21.195Z,0
2017-07-10T03:17:01.649Z,0
2017-07-10T03:17:42.111Z,0
2017-07-10T03:18:22.570Z,0
2017-07-10T03:19:03.040Z,0
2017-07-10T03:19:43.512Z,0
2017-07-10T03:20:23.973Z,0
2017-07-10T03:21:04.438Z,0
2017-07-10T03:21:44.895Z,0
2017-07-10T03:22:25.401Z,0
2017-07-10T03:23:05.797Z,0
2017-07-10T03:23:46.264Z,0
2017-07-10T03:24:26.722Z,0
2017-07-10T03:25:07.185Z,0
2017-07-10T03:25:47.643Z,0
2017-07-10T03:26:28.110Z,0
2017-07-10T03:27:08.564Z,0
2017-07-10T03:27:49.025Z,0
2017-07-10T03:28:29.484Z,0
2017-07-10T03:29:09.944Z,0
2017-07-10T03:29:50.401Z,0
2017-07-10T03:30:30.861Z,0
2017-07-10T03:31:11.303Z,0
2017-07-10T03:31:51.761Z,0
2017-07-10T03:32:32.218Z,0
2017-07-10T03:33:12.681Z,0
2017-07-10T03:33:53.138Z,0
2017-07-10T03:34:33.596Z,0
2017-07-10T03:35:14.058Z,0
2017-07-10T03:35:54.520Z,0
2017-07-10T03:36:34.979Z,0
2017-07-10T03:37:15.438Z,0
2017-07-10T03:37:55.903Z,0
2017-07-10T03:38:36.364Z,0
2017-07-10T03:39:16.818Z,0
2017-07-10T03:39:57.274Z,0
2017-07-10T03:40:37.738Z,0
2017-07-10T03:41:18.219Z,0
2017-07-10T03:41:58.687Z,0
2017-07-10T03:42:39.148Z,0
2017-07-10T03:43:19.599Z,0
2017-07-10T03:44:00.058Z,0
2017-07-10T03:44:40.514Z,0
2017-07-10T03:45:20.968Z,0
2017-07-10T03:46:01.425Z,0
2017-07-10T03:46:41.882Z,0
2017-07-10T03:47:22.341Z,0
2017-07-10T03:48:02.805Z,0
2017-07-10T03:48:43.266Z,0
2017-07-10T03:49:23.718Z,0
2017-07-10T03:50:04.176Z,0
2017-07-10T03:50:44.635Z,0
2017-07-10T03:51:25.091Z,0
2017-07-10T03:52:05.551Z,0
2017-07-10T03:52:46.027Z,0
2017-07-10T03:53:26.488Z,0
2017-07-10T03:54:06.946Z,0
2017-07-10T03:54:47.404Z,0
2017-07-10T03:55:27.861Z,32
2017-07-10T03:56:09.924Z,32
2017-07-10T03:56:50.383Z,36
2017-07-10T03:57:30.989Z,28
2017-07-10T03:58:11.280Z,32
2017-07-10T03:58:51.739Z,32
2017-07-10T03:59:32.201Z,32
2017-07-10T04:00:12.663Z,36
2017-07-10T04:00:53.126Z,32
2017-07-10T04:01:33.591Z,36
2017-07-10T04:02:14.050Z,36
2017-07-10T04:02:54.515Z,36
2017-07-10T04:03:34.970Z,40
2017-07-10T04:04:15.429Z,36
2017-07-10T04:04:55.883Z,36
2017-07-10T04:05:36.336Z,36
2017-07-10T04:06:16.795Z,36
2017-07-10T04:06:57.249Z,40
2017-07-10T04:07:37.709Z,40
2017-07-10T04:08:18.159Z,40
2017-07-10T04:08:58.607Z,40
2017-07-10T04:09:39.071Z,40
2017-07-10T04:10:19.530Z,40
2017-07-10T04:10:59.991Z,44
2017-07-10T04:11:40.448Z,44
2017-07-10T04:12:20.917Z,44
2017-07-10T04:13:01.365Z,48
2017-07-10T04:13:41.826Z,48
2017-07-10T04:14:22.285Z,52
2017-07-10T04:15:02.741Z,52
2017-07-10T04:15:43.198Z,52
2017-07-10T04:16:23.652Z,56
2017-07-10T04:17:04.117Z,60
2017-07-10T04:17:44.583Z,60
2017-07-10T04:18:25.040Z,64
2017-07-10T04:19:05.494Z,72
2017-07-10T04:19:45.957Z,76
2017-07-10T04:20:26.416Z,80
2017-07-10T04:21:06.871Z,84
2017-07-10T04:21:47.326Z,88
2017-07-10T04:22:27.789Z,88
2017-07-10T04:23:08.240Z,92
2017-07-10T04:23:48.696Z,92
2017-07-10T04:24:29.153Z,96
2017-07-10T04:25:09.612Z,100
2017-07-10T04:25:50.071Z,92
2017-07-10T04:26:30.516Z,92
2017-07-10T04:27:10.972Z,88
2017-07-10T04:27:51.428Z,84
2017-07-10T04:28:31.885Z,80
2017-07-10T04:29:12.343Z,76
2017-07-10T04:29:52.804Z,68
2017-07-10T04:30:33.261Z,68
2017-07-10T04:31:13.727Z,64
2017-07-10T04:31:54.184Z,60
2017-07-10T04:32:34.642Z,60
2017-07-10T04:33:15.105Z,56
2017-07-10T04:33:55.561Z,52
2017-07-10T04:34:36.022Z,52
2017-07-10T04:35:16.472Z,52
2017-07-10T04:35:56.939Z,48
2017-07-10T04:36:37.394Z,48
2017-07-10T04:37:17.853Z,48
2017-07-10T04:37:58.309Z,48
2017-07-10T04:38:38.770Z,44
2017-07-10T04:39:19.227Z,48
2017-07-10T04:39:59.688Z,48
2017-07-10T04:40:40.143Z,44
2017-07-10T04:41:20.600Z,48
2017-07-10T04:42:01.066Z,48
2017-07-10T04:42:41.527Z,48
2017-07-10T04:43:21.978Z,48
2017-07-10T04:44:02.436Z,52
2017-07-10T04:44:42.896Z,52
2017-07-10T04:45:23.357Z,52
2017-07-10T04:46:03.810Z,56
2017-07-10T04:46:44.276Z,56
2017-07-10T04:47:24.726Z,60
2017-07-10T04:48:05.174Z,64
2017-07-10T04:48:45.618Z,64
2017-07-10T04:49:26.069Z,64
2017-07-10T04:50:06.530Z,68
2017-07-10T04:50:46.987Z,68
2017-07-10T04:51:27.453Z,72
2017-07-10T04:52:07.913Z,72
2017-07-10T04:52:48.373Z,80
2017-07-10T04:53:28.833Z,76
2017-07-10T04:54:09.290Z,80
2017-07-10T04:54:49.750Z,84
2017-07-10T04:55:30.206Z,84
2017-07-10T04:56:10.654Z,80
2017-07-10T04:56:51.111Z,76
2017-07-10T04:57:31.568Z,76
2017-07-10T04:58:12.025Z,76
2017-07-10T04:58:52.496Z,72
2017-07-10T04:59:32.957Z,76
2017-07-10T05:00:13.416Z,72
2017-07-10T05:00:53.872Z,72
2017-07-10T05:01:34.325Z,76
2017-07-10T05:02:14.788Z,72
2017-07-10T05:02:55.246Z,68
2017-07-10T05:03:35.705Z,72
2017-07-10T05:04:16.174Z,68
2017-07-10T05:04:56.632Z,68
2017-07-10T05:05:37.094Z,68
2017-07-10T05:06:17.554Z,72
2017-07-10T05:06:58.007Z,72
2017-07-10T05:07:38.469Z,68
2017-07-10T05:08:18.949Z,72
2017-07-10T05:08:59.408Z,76
2017-07-10T05:09:39.866Z,80
2017-07-10T05:10:20.324Z,80
2017-07-10T05:11:00.769Z,84
2017-07-10T05:11:41.225Z,88
2017-07-10T05:12:21.686Z,92
2017-07-10T05:13:02.137Z,92
2017-07-10T05:13:42.590Z,96
2017-07-10T05:14:23.044Z,100
2017-07-10T05:15:03.502Z,100
2017-07-10T05:15:43.963Z,96
2017-07-10T05:16:24.421Z,96
2017-07-10T05:17:04.879Z,92
2017-07-10T05:17:45.340Z,92
2017-07-10T05:18:25.799Z,96
2017-07-10T05:19:06.271Z,100
2017-07-10T05:19:46.721Z,104
2017-07-10T05:20:27.183Z,104
2017-07-10T05:21:07.631Z,108
2017-07-10T05:21:48.099Z,108
2017-07-10T05:22:28.557Z,108
2017-07-10T05:23:09.019Z,108
2017-07-10T05:23:49.471Z,108
2017-07-10T05:24:29.929Z,108
2017-07-10T05:25:10.403Z,108
2017-07-10T05:25:50.858Z,108
2017-07-10T05:26:31.317Z,104
2017-07-10T05:27:11.776Z,104
2017-07-10T05:27:52.232Z,100
2017-07-10T05:28:32.696Z,100
2017-07-10T05:29:13.152Z,96
2017-07-10T05:29:53.609Z,92
2017-07-10T05:30:34.067Z,88
2017-07-10T05:31:14.530Z,84
2017-07-10T05:31:54.988Z,80
2017-07-10T05:32:35.443Z,80
2017-07-10T05:33:15.906Z,76
2017-07-10T05:33:56.365Z,72
2017-07-10T05:34:36.817Z,72
2017-07-10T05:35:17.277Z,72
2017-07-10T05:35:57.737Z,76
2017-07-10T05:36:38.190Z,76
2017-07-10T05:37:18.652Z,80
2017-07-10T05:37:59.108Z,80
2017-07-10T05:38:39.566Z,76
2017-07-10T05:39:20.029Z,76
2017-07-10T05:40:00.489Z,76
2017-07-10T05:40:40.955Z,76
2017-07-10T05:41:21.405Z,76
2017-07-10T05:42:01.866Z,72
2017-07-10T05:42:42.316Z,72
2017-07-10T05:43:22.771Z,72
2017-07-10T05:44:03.226Z,116
2017-07-10T05:44:43.678Z,152
2017-07-10T05:45:24.140Z,156
2017-07-10T05:46:04.593Z,164
2017-07-10T05:46:45.052Z,172
2017-07-10T05:47:25.537Z,176
2017-07-10T05:48:05.968Z,184
2017-07-10T05:48:46.430Z,192
2017-07-10T05:49:26.885Z,196
2017-07-10T05:50:07.343Z,192
2017-07-10T05:50:47.809Z,192
2017-07-10T05:51:28.264Z,192
2017-07-10T05:52:08.722Z,196
2017-07-10T05:52:49.178Z,192
2017-07-10T05:53:29.638Z,196
2017-07-10T05:54:10.100Z,200
2017-07-10T05:54:50.556Z,204
2017-07-10T05:55:31.021Z,216
2017-07-10T05:56:11.480Z,224
2017-07-10T05:56:51.933Z,236
2017-07-10T05:57:32.388Z,248
2017-07-10T05:58:12.849Z,256
2017-07-10T05:58:53.306Z,268
2017-07-10T05:59:33.767Z,280
2017-07-10T06:00:14.225Z,288
2017-07-10T06:00:54.683Z,288
2017-07-10T06:01:35.145Z,284
2017-07-10T06:02:15.605Z,272
2017-07-10T06:02:56.060Z,260
2017-07-10T06:03:36.519Z,248
2017-07-10T06:04:16.977Z,244
2017-07-10T06:04:57.428Z,236
2017-07-10T06:05:37.905Z,132
2017-07-10T06:06:18.363Z,136
2017-07-10T06:06:58.820Z,144
2017-07-10T06:07:39.273Z,152
2017-07-10T06:08:19.729Z,160
2017-07-10T06:09:00.192Z,164
2017-07-10T06:09:40.638Z,172
2017-07-10T06:10:21.265Z,192
2017-07-10T06:11:01.681Z,216
2017-07-10T06:11:42.137Z,228
2017-07-10T06:12:22.595Z,240
2017-07-10T06:13:03.050Z,236
2017-07-10T06:13:43.510Z,232
2017-07-10T06:14:23.974Z,228
2017-07-10T06:15:04.431Z,216
2017-07-10T06:15:44.886Z,204
2017-07-10T06:16:25.345Z,192
2017-07-10T06:17:05.802Z,184
2017-07-10T06:17:46.255Z,172
2017-07-10T06:18:26.716Z,168
2017-07-10T06:19:07.176Z,168
2017-07-10T06:19:47.633Z,168
2017-07-10T06:20:28.091Z,176
2017-07-10T06:21:08.547Z,184
2017-07-10T06:21:49.002Z,188
2017-07-10T06:22:29.467Z,200
2017-07-10T06:23:09.921Z,204
2017-07-10T06:23:50.375Z,216
2017-07-10T06:24:30.828Z,228
2017-07-10T06:25:11.285Z,240
2017-07-10T06:25:51.753Z,252
2017-07-10T06:26:32.209Z,268
2017-07-10T06:27:12.673Z,284
2017-07-10T06:27:53.128Z,296
2017-07-10T06:28:33.586Z,312
2017-07-10T06:29:14.043Z,336
2017-07-10T06:29:54.503Z,356
2017-07-10T06:30:34.960Z,368
2017-07-10T06:31:15.414Z,368
2017-07-10T06:31:55.869Z,348
2017-07-10T06:32:36.355Z,332
2017-07-10T06:33:16.813Z,316
2017-07-10T06:33:57.275Z,300
2017-07-10T06:34:37.735Z,292
2017-07-10T06:35:18.200Z,292
2017-07-10T06:35:58.666Z,296
2017-07-10T06:36:39.117Z,304
2017-07-10T06:37:19.582Z,320
2017-07-10T06:38:00.026Z,340
2017-07-10T06:38:40.481Z,352
2017-07-10T06:39:20.940Z,364
2017-07-10T06:40:01.397Z,376
2017-07-10T06:40:41.854Z,388
2017-07-10T06:41:22.312Z,380
2017-07-10T06:42:02.770Z,360
2017-07-10T06:42:43.229Z,332
2017-07-10T06:43:23.686Z,308
2017-07-10T06:44:04.136Z,284
2017-07-10T06:44:44.606Z,268
2017-07-10T06:45:25.058Z,244
2017-07-10T06:46:05.518Z,224
2017-07-10T06:46:45.993Z,204
2017-07-10T06:47:26.450Z,192
2017-07-10T06:48:06.907Z,184
2017-07-10T06:48:47.366Z,180
2017-07-10T06:49:27.823Z,176
2017-07-10T06:50:08.279Z,172
2017-07-10T06:50:48.783Z,164
2017-07-10T06:51:29.194Z,164
2017-07-10T06:52:09.648Z,160
2017-07-10T06:52:50.107Z,160
2017-07-10T06:53:30.561Z,164
2017-07-10T06:54:11.021Z,164
2017-07-10T06:54:51.482Z,160
2017-07-10T06:55:31.945Z,160
2017-07-10T06:56:12.397Z,160
2017-07-10T06:56:52.858Z,160
2017-07-10T06:57:33.315Z,160
2017-07-10T06:58:13.772Z,164
2017-07-10T06:58:54.233Z,168
2017-07-10T06:59:34.688Z,172
2017-07-10T07:00:15.145Z,176
2017-07-10T07:00:55.606Z,188
2017-07-10T07:01:36.060Z,196
2017-07-10T07:02:16.519Z,212
2017-07-10T07:02:56.972Z,224
2017-07-10T07:03:37.429Z,228
2017-07-10T07:04:17.912Z,232
2017-07-10T07:04:58.372Z,236
2017-07-10T07:05:38.826Z,232
2017-07-10T07:06:19.286Z,236
2017-07-10T07:06:59.742Z,236
2017-07-10T07:07:40.195Z,240
2017-07-10T07:08:20.652Z,240
2017-07-10T07:09:01.122Z,244
2017-07-10T07:09:41.585Z,252
2017-07-10T07:10:22.042Z,268
2017-07-10T07:11:02.498Z,304
2017-07-10T07:11:42.952Z,344
2017-07-10T07:12:23.415Z,392
2017-07-10T07:13:03.871Z,432
2017-07-10T07:13:44.336Z,464
2017-07-10T07:14:24.794Z,472
2017-07-10T07:15:05.251Z,468
2017-07-10T07:15:45.706Z,464
2017-07-10T07:16:26.163Z,460
2017-07-10T07:17:06.614Z,452
2017-07-10T07:17:47.087Z,436
2017-07-10T07:18:27.543Z,408
2017-07-10T07:19:07.999Z,380
2017-07-10T07:19:48.456Z,364
2017-07-10T07:20:28.917Z,360
2017-07-10T07:21:09.645Z,368
2017-07-10T07:21:50.103Z,376
2017-07-10T07:22:30.562Z,368
2017-07-10T07:23:11.003Z,356
2017-07-10T07:23:51.478Z,340
2017-07-10T07:24:31.940Z,324
2017-07-10T07:25:12.400Z,312
2017-07-10T07:25:52.876Z,304
2017-07-10T07:26:33.333Z,296
2017-07-10T07:27:13.795Z,292
2017-07-10T07:27:54.254Z,288
2017-07-10T07:28:34.713Z,284
2017-07-10T07:29:15.167Z,284
2017-07-10T07:29:55.630Z,288
2017-07-10T07:30:36.090Z,292
2017-07-10T07:31:16.552Z,292
2017-07-10T07:31:57.001Z,296
2017-07-10T07:32:37.459Z,292
2017-07-10T07:33:18.154Z,292
2017-07-10T07:33:58.615Z,292
2017-07-10T07:34:39.071Z,288
2017-07-10T07:35:19.532Z,288
2017-07-10T07:35:59.982Z,288
2017-07-10T07:36:40.431Z,284
2017-07-10T07:37:20.892Z,276
2017-07-10T07:38:01.378Z,276
2017-07-10T07:38:41.829Z,280
2017-07-10T07:39:22.271Z,288
2017-07-10T07:40:02.725Z,292
2017-07-10T07:40:43.182Z,292
2017-07-10T07:41:23.659Z,284
2017-07-10T07:42:04.132Z,276
2017-07-10T07:42:44.591Z,268
2017-07-10T07:43:25.053Z,264
2017-07-10T07:44:05.501Z,260
2017-07-10T07:44:45.944Z,264
2017-07-10T07:45:26.416Z,272
2017-07-10T07:46:06.863Z,280
2017-07-10T07:46:47.315Z,288
2017-07-10T07:47:27.780Z,300
2017-07-10T07:48:08.242Z,312
2017-07-10T07:48:48.700Z,324
2017-07-10T07:49:29.161Z,340
2017-07-10T07:50:09.609Z,360
2017-07-10T07:50:50.065Z,384
2017-07-10T07:51:30.520Z,404
2017-07-10T07:52:10.968Z,428
2017-07-10T07:52:51.430Z,448
2017-07-10T07:53:31.885Z,472
2017-07-10T07:54:12.344Z,484
2017-07-10T07:54:52.807Z,496
2017-07-10T07:55:33.268Z,504
2017-07-10T07:56:13.725Z,512
2017-07-10T07:56:54.188Z,532
2017-07-10T07:57:34.635Z,556
2017-07-10T07:58:15.091Z,592
2017-07-10T07:58:55.544Z,636
2017-07-10T07:59:36.000Z,688
2017-07-10T08:00:16.455Z,744
2017-07-10T08:00:56.916Z,792
2017-07-10T08:01:37.370Z,832
2017-07-10T08:02:17.825Z,868
2017-07-10T08:02:58.276Z,892
2017-07-10T08:03:38.739Z,920
2017-07-10T08:04:19.195Z,912
2017-07-10T08:04:59.661Z,892
2017-07-10T08:05:40.115Z,852
2017-07-10T08:06:20.572Z,796
2017-07-10T08:07:01.033Z,728
2017-07-10T08:09:19.339Z,564
2017-07-10T08:09:59.856Z,512
2017-07-10T08:10:40.257Z,480
2017-07-10T08:11:20.724Z,460
2017-07-10T08:12:01.195Z,436
2017-07-10T08:12:41.654Z,428
2017-07-10T08:13:22.099Z,428
2017-07-10T08:14:02.558Z,428
2017-07-10T08:14:43.014Z,436
2017-07-10T08:15:23.987Z,448
2017-07-10T08:16:04.348Z,464
2017-07-10T08:16:44.803Z,484
2017-07-10T08:17:25.261Z,504
2017-07-10T08:18:05.715Z,528
2017-07-10T08:18:46.185Z,552
2017-07-10T08:19:26.640Z,580
2017-07-10T08:20:07.097Z,604
2017-07-10T08:20:47.628Z,640
2017-07-10T08:21:28.004Z,688
2017-07-10T08:22:08.449Z,744
2017-07-10T08:22:48.901Z,432
2017-07-10T08:23:29.350Z,848
2017-07-10T08:24:09.798Z,884
2017-07-10T08:24:50.254Z,908
2017-07-10T08:25:30.781Z,904
2017-07-10T08:26:11.232Z,896
2017-07-10T08:26:51.670Z,884
2017-07-10T08:27:32.128Z,876
2017-07-10T08:28:12.585Z,752
2017-07-10T08:28:53.031Z,932
2017-07-10T08:29:33.492Z,948
2017-07-10T08:31:46.474Z,760
2017-07-10T08:32:26.893Z,704
2017-07-10T08:33:07.370Z,672
2017-07-10T08:33:47.827Z,696
2017-07-10T08:34:28.280Z,728
2017-07-10T08:35:08.733Z,812
2017-07-10T08:35:49.201Z,908
2017-07-10T08:36:29.657Z,1016
2017-07-10T08:37:10.115Z,1088
2017-07-10T08:37:50.565Z,1128
2017-07-10T08:38:31.003Z,1148
2017-07-10T08:39:11.469Z,1164
2017-07-10T08:39:51.914Z,1168
2017-07-10T08:40:32.363Z,1176
2017-07-10T08:41:12.830Z,1120
2017-07-10T08:41:53.277Z,1100
2017-07-10T08:42:33.728Z,1148
2017-07-10T08:43:14.185Z,1052
2017-07-10T08:43:54.622Z,988
2017-07-10T08:44:35.069Z,920
2017-07-10T08:45:15.520Z,832
2017-07-10T08:45:55.963Z,768
2017-07-10T08:46:36.418Z,728
2017-07-10T08:47:16.871Z,708
2017-07-10T08:47:57.324Z,696
2017-07-10T08:48:37.782Z,696
2017-07-10T08:49:18.246Z,704
2017-07-10T08:49:58.695Z,720
2017-07-10T08:50:39.149Z,736
2017-07-10T08:51:19.603Z,760
2017-07-10T08:52:00.037Z,776
2017-07-10T08:52:40.481Z,788
2017-07-10T08:53:20.936Z,796
2017-07-10T08:54:01.395Z,808
2017-07-10T08:54:41.850Z,832
2017-07-10T08:55:22.307Z,868
2017-07-10T08:56:02.847Z,928
2017-07-10T08:56:43.210Z,1004
2017-07-10T08:57:23.666Z,1084
2017-07-10T08:58:04.150Z,1168
2017-07-10T08:58:44.604Z,1224
2017-07-10T08:59:25.283Z,1252
2017-07-10T09:00:05.741Z,1268
2017-07-10T09:00:46.200Z,1284
2017-07-10T09:01:26.652Z,1312
2017-07-10T09:02:07.110Z,1348
2017-07-10T09:02:47.566Z,1404
2017-07-10T09:03:28.025Z,1452
2017-07-10T09:04:08.690Z,1488
2017-07-10T09:04:49.159Z,1536
2017-07-10T09:05:29.624Z,1584
2017-07-10T09:06:10.080Z,1628
2017-07-10T09:06:50.537Z,1684
2017-07-10T09:07:31.002Z,1752
2017-07-10T09:08:11.455Z,1800
2017-07-10T09:08:51.908Z,1844
2017-07-10T09:09:32.424Z,1892
2017-07-10T09:10:13.050Z,1960
2017-07-10T09:10:53.444Z,2092
2017-07-10T09:11:33.895Z,2976
2017-07-10T09:12:14.399Z,2796
2017-07-10T09:12:54.851Z,2120
2017-07-10T09:13:35.301Z,1956
2017-07-10T09:14:15.751Z,1764
2017-07-10T09:14:56.201Z,1740
2017-07-10T09:15:36.705Z,1748
2017-07-10T09:16:17.157Z,1744
2017-07-10T09:16:57.599Z,1752
2017-07-10T09:17:38.050Z,1720
2017-07-10T09:18:18.502Z,1656
2017-07-10T09:18:58.959Z,1624
2017-07-10T09:19:39.412Z,1584
2017-07-10T09:20:19.868Z,1540
2017-07-10T09:21:00.329Z,1484
2017-07-10T09:21:40.782Z,1452
2017-07-10T09:22:21.239Z,1412
2017-07-10T09:23:01.706Z,1348
2017-07-10T09:23:42.162Z,1272
2017-07-10T09:24:23.093Z,1220
2017-07-10T09:25:03.543Z,1184
2017-07-10T09:27:37.043Z,1200
2017-07-10T09:28:17.484Z,1208
2017-07-10T09:28:57.938Z,1208
2017-07-10T09:29:38.393Z,1220
2017-07-10T09:30:18.853Z,1236
2017-07-10T09:30:59.309Z,1248
2017-07-10T09:31:40.080Z,1284
2017-07-10T09:32:20.282Z,1320
2017-07-10T09:33:00.733Z,1332
2017-07-10T09:33:41.293Z,1316
2017-07-10T09:34:21.746Z,1316
2017-07-10T09:35:02.203Z,1348
2017-07-10T09:35:42.653Z,1424
2017-07-10T09:36:23.557Z,1536
2017-07-10T09:37:04.011Z,1668
2017-07-10T09:37:44.677Z,1708
2017-07-10T09:38:24.945Z,1760
2017-07-10T09:39:05.777Z,1796
2017-07-10T09:39:46.079Z,1800